Time;durP1;ratioP1;P1;durP2;ratioP2;P2;SDS_P1;SDS_P2;PMS_P1;PMS_P2;Temp;Humidity;BMP_temperature;BMP_pressure;BME280_temperature;BME280_humidity;BME280_pressure;Samples;Min_cycle;Max_cycle;Signal;HPM_P1;HPM_P2
2022/08/21 00:01:50;;;;;;;5.03;3.40;;;17.20;99.90;;;;;;7343056;19;109476;-85
2022/08/21 00:04:17;;;;;;;8.48;2.97;;;17.20;99.90;;;;;;7341510;19;109721;-85
2022/08/21 00:06:49;;;;;;;3.83;2.65;;;17.20;99.90;;;;;;7340836;19;111523;-85
2022/08/21 00:09:17;;;;;;;6.53;2.95;;;17.20;99.90;;;;;;7343818;19;109401;-84
2022/08/21 00:11:44;;;;;;;8.43;2.67;;;17.10;99.90;;;;;;7343005;19;110434;-85
2022/08/21 00:14:13;;;;;;;3.58;2.65;;;17.10;99.90;;;;;;7343238;19;110740;-85
2022/08/21 00:16:40;;;;;;;5.03;2.92;;;16.90;99.90;;;;;;7348982;19;109208;-85
2022/08/21 00:19:08;;;;;;;3.95;2.50;;;16.80;99.90;;;;;;7342741;19;111486;-84
2022/08/21 00:21:35;;;;;;;6.90;2.38;;;16.80;99.90;;;;;;7342530;19;109280;-85
2022/08/21 00:24:03;;;;;;;3.80;2.33;;;16.80;99.90;;;;;;7342489;19;112642;-85
2022/08/21 00:26:31;;;;;;;4.97;2.50;;;16.80;99.90;;;;;;7341426;19;110101;-85
2022/08/21 00:28:58;;;;;;;6.00;2.47;;;16.80;99.90;;;;;;7341269;19;110510;-85
2022/08/21 00:31:26;;;;;;;4.75;2.70;;;16.80;99.90;;;;;;7343101;19;109471;-85
2022/08/21 00:33:53;;;;;;;2.95;2.42;;;16.80;99.90;;;;;;7342121;19;112724;-84
2022/08/21 00:36:26;;;;;;;4.45;2.60;;;16.80;99.90;;;;;;7346642;19;109576;-84
2022/08/21 00:38:53;;;;;;;6.25;2.50;;;16.80;99.90;;;;;;7340609;19;110996;-85
2022/08/21 00:41:22;;;;;;;8.30;2.67;;;16.80;99.90;;;;;;7341569;19;109813;-85
2022/08/21 00:44:07;;;;;;;6.80;2.70;;;16.80;99.90;;;;;;7343341;19;110435;-84
2022/08/21 00:46:35;;;;;;;6.80;3.03;;;16.70;99.90;;;;;;7342137;19;111127;-85
2022/08/21 00:49:04;;;;;;;6.90;2.90;;;16.70;99.90;;;;;;7340505;19;109205;-85
2022/08/21 00:51:46;;;;;;;4.43;2.53;;;16.70;99.90;;;;;;7340970;19;110665;-84
2022/08/21 00:54:14;;;;;;;5.97;2.90;;;16.70;99.90;;;;;;7343561;19;111894;-85
2022/08/21 00:56:49;;;;;;;7.07;2.55;;;16.70;99.90;;;;;;7343429;19;109239;-84
2022/08/21 00:59:18;;;;;;;6.03;2.45;;;16.70;99.90;;;;;;7344236;19;110473;-84
2022/08/21 01:01:46;;;;;;;5.18;2.60;;;16.70;99.90;;;;;;7341969;19;109454;-85
2022/08/21 01:04:16;;;;;;;6.50;2.60;;;16.60;99.90;;;;;;7343336;19;110425;-85
2022/08/21 01:06:43;;;;;;;4.57;2.75;;;16.60;99.90;;;;;;7340517;19;110840;-84
2022/08/21 01:09:11;;;;;;;4.88;2.58;;;16.60;99.90;;;;;;7342124;19;111042;-84
2022/08/21 01:11:41;;;;;;;3.95;2.50;;;16.60;99.90;;;;;;7341302;19;111583;-84
2022/08/21 01:14:11;;;;;;;8.50;2.80;;;16.50;99.90;;;;;;7340496;19;110167;-85
2022/08/21 01:16:42;;;;;;;5.68;2.75;;;16.50;99.90;;;;;;7342737;19;109200;-84
2022/08/21 01:19:10;;;;;;;5.28;2.70;;;16.50;99.90;;;;;;7339520;19;110742;-84
2022/08/21 01:21:38;;;;;;;3.83;2.30;;;16.50;99.90;;;;;;7345292;19;111132;-84
2022/08/21 01:24:05;;;;;;;5.60;2.42;;;16.50;99.90;;;;;;7341004;19;110155;-84
2022/08/21 01:26:34;;;;;;;3.70;2.35;;;16.40;99.90;;;;;;7341131;19;110166;-84
2022/08/21 01:29:16;;;;;;;6.05;2.58;;;16.40;99.90;;;;;;7341479;19;112024;-84
2022/08/21 01:31:43;;;;;;;5.50;2.80;;;16.40;99.90;;;;;;7342223;19;111291;-85
2022/08/21 01:34:10;;;;;;;6.75;2.50;;;16.40;99.90;;;;;;7340947;19;111269;-84
2022/08/21 01:36:40;;;;;;;6.60;2.60;;;16.40;99.90;;;;;;7340154;19;110430;-85
2022/08/21 01:39:07;;;;;;;6.32;2.50;;;16.30;99.90;;;;;;7336418;19;111396;-85
2022/08/21 01:41:34;;;;;;;4.82;2.30;;;16.30;99.90;;;;;;7338149;19;110768;-84
2022/08/21 01:44:02;;;;;;;6.68;2.47;;;16.30;99.90;;;;;;7346575;19;109603;-84
2022/08/21 01:46:30;;;;;;;4.07;2.65;;;16.30;99.90;;;;;;7339690;19;114702;-84
2022/08/21 01:48:57;;;;;;;7.15;2.72;;;16.30;99.90;;;;;;7337430;19;109288;-84
2022/08/21 01:51:25;;;;;;;5.72;2.20;;;16.30;99.90;;;;;;7340251;19;110393;-84
2022/08/21 01:53:52;;;;;;;6.72;2.90;;;16.30;99.90;;;;;;7340192;19;110965;-84
2022/08/21 01:56:19;;;;;;;7.30;2.75;;;16.30;99.90;;;;;;7340996;19;111363;-84
2022/08/21 01:58:47;;;;;;;6.50;2.72;;;16.20;99.90;;;;;;7337041;19;109993;-84
2022/08/21 02:01:14;;;;;;;8.23;2.63;;;16.30;99.90;;;;;;7340104;19;110125;-84
2022/08/21 02:03:42;;;;;;;7.43;2.60;;;16.30;99.90;;;;;;7340524;19;109419;-85
2022/08/21 02:06:14;;;;;;;5.13;2.95;;;16.30;99.90;;;;;;7345661;19;110303;-85
2022/08/21 02:08:41;;;;;;;7.07;2.60;;;16.30;99.90;;;;;;7340248;19;109954;-84
2022/08/21 02:11:08;;;;;;;8.57;3.00;;;16.20;99.90;;;;;;7342973;19;110558;-84
2022/08/21 02:13:35;;;;;;;6.68;2.95;;;16.20;99.90;;;;;;7343178;19;110495;-85
2022/08/21 02:16:03;;;;;;;5.43;2.40;;;16.10;99.90;;;;;;7342302;19;109930;-85
2022/08/21 02:18:30;;;;;;;4.95;2.75;;;16.10;99.90;;;;;;7341602;19;110405;-84
2022/08/21 02:20:57;;;;;;;6.57;2.65;;;15.90;99.90;;;;;;7342330;19;110924;-84
2022/08/21 02:23:25;;;;;;;5.18;2.72;;;15.90;99.90;;;;;;7342250;19;110081;-84
2022/08/21 02:26:01;;;;;;;7.60;2.72;;;15.80;99.90;;;;;;7340841;19;109500;-84
2022/08/21 02:28:31;;;;;;;4.50;2.40;;;15.80;99.90;;;;;;7345967;19;110257;-86
2022/08/21 02:30:59;;;;;;;5.68;2.42;;;15.80;99.90;;;;;;7342282;19;109401;-84
2022/08/21 02:33:26;;;;;;;6.57;2.60;;;15.80;99.90;;;;;;7340761;19;110289;-86
2022/08/21 02:35:55;;;;;;;5.30;2.75;;;15.80;99.90;;;;;;7341675;19;109767;-85
2022/08/21 02:38:26;;;;;;;5.82;2.60;;;15.70;99.90;;;;;;7340060;19;109389;-85
2022/08/21 02:40:54;;;;;;;6.82;2.83;;;15.60;99.90;;;;;;7340721;19;111169;-85
2022/08/21 02:43:23;;;;;;;6.22;2.40;;;15.60;99.90;;;;;;7341329;19;109304;-85
2022/08/21 02:45:51;;;;;;;6.60;2.67;;;15.60;99.90;;;;;;7340122;19;111625;-84
2022/08/21 02:48:22;;;;;;;6.07;2.63;;;15.60;99.90;;;;;;7346856;19;111204;-85
2022/08/21 02:50:58;;;;;;;5.10;2.83;;;15.60;99.90;;;;;;7340399;19;110743;-84
2022/08/21 02:53:27;;;;;;;6.07;2.60;;;15.60;99.90;;;;;;7342231;19;111297;-84
2022/08/21 02:55:56;;;;;;;6.82;2.90;;;15.50;99.90;;;;;;7345522;19;109809;-86
2022/08/21 02:58:31;;;;;;;4.85;2.47;;;15.50;99.90;;;;;;7344943;19;112731;-84
2022/08/21 03:00:58;;;;;;;8.45;2.78;;;15.50;99.90;;;;;;7358523;19;110765;-83
2022/08/21 03:03:27;;;;;;;7.78;2.90;;;15.40;99.90;;;;;;7371635;19;109728;-82
2022/08/21 03:05:55;;;;;;;5.68;2.70;;;15.40;99.90;;;;;;7371279;19;112547;-83
2022/08/21 03:08:23;;;;;;;4.68;2.47;;;15.30;99.90;;;;;;7370304;19;111012;-82
2022/08/21 03:10:54;;;;;;;7.05;2.78;;;15.30;99.90;;;;;;7378952;19;109206;-83
2022/08/21 03:13:21;;;;;;;6.43;2.38;;;15.20;99.90;;;;;;7373832;19;109975;-82
2022/08/21 03:15:49;;;;;;;6.68;2.78;;;15.20;99.90;;;;;;7374763;19;109148;-83
2022/08/21 03:18:17;;;;;;;7.53;2.80;;;15.20;99.90;;;;;;7373493;19;109230;-83
2022/08/21 03:20:47;;;;;;;8.25;2.70;;;15.20;99.90;;;;;;7357425;19;110365;-83
2022/08/21 03:23:17;;;;;;;8.60;2.85;;;15.20;99.90;;;;;;7352789;19;109319;-83
2022/08/21 03:25:46;;;;;;;5.07;2.50;;;15.20;99.90;;;;;;7354844;19;110515;-84
2022/08/21 03:28:18;;;;;;;7.82;2.92;;;15.20;99.90;;;;;;7352956;19;109745;-84
2022/08/21 03:30:48;;;;;;;8.23;2.58;;;15.20;99.90;;;;;;7352064;19;109692;-83
2022/08/21 03:33:16;;;;;;;8.30;2.95;;;15.10;99.90;;;;;;7352779;19;109730;-83
2022/08/21 03:35:52;;;;;;;9.18;3.00;;;15.00;99.90;;;;;;7348780;19;109458;-82
2022/08/21 03:38:19;;;;;;;7.90;2.95;;;15.00;99.90;;;;;;7346037;19;109594;-84
2022/08/21 03:40:52;;;;;;;11.82;3.83;;;14.90;99.90;;;;;;7344873;19;111391;-85
2022/08/21 03:43:19;;;;;;;5.55;2.58;;;14.90;99.90;;;;;;7343383;19;110851;-84
2022/08/21 03:45:46;;;;;;;6.25;2.70;;;14.90;99.90;;;;;;7345713;19;113035;-84
2022/08/21 03:48:14;;;;;;;7.28;2.95;;;14.90;99.90;;;;;;7345007;19;111269;-84
2022/08/21 03:50:44;;;;;;;8.82;2.85;;;14.90;99.90;;;;;;7344693;19;109702;-85
2022/08/21 03:53:13;;;;;;;5.78;2.97;;;14.80;99.90;;;;;;7342945;19;110506;-85
2022/08/21 03:55:42;;;;;;;6.28;2.80;;;14.80;99.90;;;;;;7350942;19;111186;-85
2022/08/21 03:58:09;;;;;;;11.27;3.25;;;14.80;99.90;;;;;;7341714;19;110527;-84
2022/08/21 04:00:45;;;;;;;5.40;2.53;;;14.80;99.90;;;;;;7343311;19;112276;-84
2022/08/21 04:03:12;;;;;;;4.75;2.63;;;14.70;99.90;;;;;;7342376;19;109676;-84
2022/08/21 04:05:39;;;;;;;6.05;2.53;;;14.80;99.90;;;;;;7340650;19;109701;-84
2022/08/21 04:08:06;;;;;;;7.75;2.80;;;14.80;99.90;;;;;;7340713;19;111323;-84
2022/08/21 04:10:36;;;;;;;6.13;3.13;;;14.80;99.90;;;;;;7343330;19;109341;-83
2022/08/21 04:13:05;;;;;;;5.20;2.50;;;14.80;99.90;;;;;;7342819;19;110085;-84
2022/08/21 04:15:32;;;;;;;5.43;2.67;;;14.80;99.90;;;;;;7343558;19;112356;-83
2022/08/21 04:17:59;;;;;;;5.00;2.67;;;14.80;99.90;;;;;;7349529;19;109410;-84
2022/08/21 04:20:27;;;;;;;6.72;2.47;;;14.70;99.90;;;;;;7344745;19;114607;-84
2022/08/21 04:22:54;;;;;;;8.38;3.05;;;14.70;99.90;;;;;;7342199;19;109454;-83
2022/08/21 04:25:23;;;;;;;4.75;2.40;;;14.60;99.90;;;;;;7344323;19;110551;-84
2022/08/21 04:27:50;;;;;;;6.95;2.53;;;14.50;99.90;;;;;;7343451;19;112746;-84
2022/08/21 04:30:18;;;;;;;8.25;2.70;;;14.50;99.90;;;;;;7343381;19;109421;-84
2022/08/21 04:32:47;;;;;;;5.93;2.60;;;14.50;99.90;;;;;;7343502;19;109809;-83
2022/08/21 04:35:17;;;;;;;5.90;2.80;;;14.40;99.90;;;;;;7342724;19;110736;-84
2022/08/21 04:37:45;;;;;;;6.57;2.75;;;14.40;99.90;;;;;;7343008;19;110245;-84
2022/08/21 04:40:14;;;;;;;5.05;2.85;;;14.30;99.90;;;;;;7346717;19;110434;-86
2022/08/21 04:42:49;;;;;;;7.15;2.97;;;14.30;99.90;;;;;;7343236;19;109511;-85
2022/08/21 04:45:23;;;;;;;6.88;2.83;;;14.30;99.90;;;;;;7343141;19;112667;-84
2022/08/21 04:47:55;;;;;;;7.80;2.75;;;14.30;99.90;;;;;;7341978;19;111726;-84
2022/08/21 04:50:28;;;;;;;4.57;2.67;;;14.30;99.90;;;;;;7342176;19;109405;-84
2022/08/21 04:52:56;;;;;;;5.45;2.58;;;14.30;99.90;;;;;;7341952;19;109898;-85
2022/08/21 04:55:26;;;;;;;5.30;2.75;;;14.40;99.90;;;;;;7340975;19;109961;-84
2022/08/21 04:57:54;;;;;;;5.68;2.70;;;14.50;99.90;;;;;;7342719;19;111585;-85
2022/08/21 05:00:24;;;;;;;5.65;2.40;;;14.50;99.90;;;;;;7343790;19;109447;-85
2022/08/21 05:02:56;;;;;;;4.90;2.30;;;14.60;99.90;;;;;;7341026;19;110375;-84
2022/08/21 05:05:23;;;;;;;4.60;2.38;;;14.70;99.90;;;;;;7340310;19;110838;-85
2022/08/21 05:07:52;;;;;;;5.63;2.17;;;14.70;99.90;;;;;;7341116;19;111242;-84
2022/08/21 05:10:19;;;;;;;5.97;2.50;;;14.70;99.90;;;;;;7339846;19;109325;-84
2022/08/21 05:12:46;;;;;;;6.05;2.63;;;14.80;99.90;;;;;;7342482;19;110006;-85
2022/08/21 05:15:14;;;;;;;5.78;2.88;;;14.80;99.90;;;;;;7338138;19;110170;-85
2022/08/21 05:17:41;;;;;;;8.95;2.78;;;14.80;99.90;;;;;;7338734;19;109834;-85
2022/08/21 05:20:11;;;;;;;7.38;2.47;;;14.80;99.90;;;;;;7334288;19;111142;-85
2022/08/21 05:22:38;;;;;;;7.20;2.53;;;14.90;99.90;;;;;;7345064;19;111240;-85
2022/08/21 05:25:06;;;;;;;7.55;2.75;;;15.00;99.90;;;;;;7339137;19;109713;-84
2022/08/21 05:27:37;;;;;;;7.03;2.78;;;15.10;99.90;;;;;;7333878;19;109497;-85
2022/08/21 05:30:08;;;;;;;8.82;2.70;;;15.10;99.90;;;;;;7333682;19;109946;-84
2022/08/21 05:32:36;;;;;;;5.85;3.10;;;15.10;99.90;;;;;;7333019;19;109467;-84
2022/08/21 05:35:07;;;;;;;8.13;2.90;;;15.10;99.90;;;;;;7335602;19;111747;-84
2022/08/21 05:37:35;;;;;;;5.65;2.92;;;15.20;99.90;;;;;;7332781;19;109614;-85
2022/08/21 05:40:05;;;;;;;7.10;2.92;;;15.20;99.90;;;;;;7333316;19;111349;-85
2022/08/21 05:42:49;;;;;;;7.25;3.10;;;15.30;99.90;;;;;;7339163;19;113711;-85
2022/08/21 05:45:23;;;;;;;8.35;2.78;;;15.30;99.90;;;;;;7345639;19;109216;-85
2022/08/21 05:48:15;;;;;;;8.60;3.33;;;15.40;99.90;;;;;;7339069;19;110611;-85
2022/08/21 05:50:44;;;;;;;9.55;3.45;;;15.40;99.90;;;;;;7338403;19;110194;-86
2022/08/21 05:53:12;;;;;;;4.57;2.47;;;15.50;99.90;;;;;;7339530;19;110292;-86
2022/08/21 05:55:42;;;;;;;10.15;2.67;;;15.60;99.90;;;;;;7340546;19;110701;-86
2022/08/21 05:58:14;;;;;;;7.50;2.90;;;15.70;99.90;;;;;;7339978;19;109840;-86
2022/08/21 06:00:42;;;;;;;7.80;2.45;;;15.80;99.90;;;;;;7339187;19;110632;-85
2022/08/21 06:03:31;;;;;;;7.90;2.83;;;15.90;99.90;;;;;;7337754;19;110136;-86
2022/08/21 06:05:59;;;;;;;7.18;2.90;;;16.10;99.90;;;;;;7340326;19;109454;-87
2022/08/21 06:08:27;;;;;;;6.68;2.88;;;16.10;99.90;;;;;;7343870;19;110788;-86
2022/08/21 06:10:56;;;;;;;6.50;2.78;;;16.20;99.90;;;;;;7338229;19;109595;-87
2022/08/21 06:13:24;;;;;;;5.43;2.83;;;16.30;99.90;;;;;;7340180;19;110476;-85
2022/08/21 06:16:02;;;;;;;5.35;2.88;;;16.50;99.90;;;;;;7340770;19;111187;-85
2022/08/21 06:18:30;;;;;;;8.40;2.90;;;16.50;99.90;;;;;;7339577;19;109893;-86
2022/08/21 06:20:57;;;;;;;9.50;2.80;;;16.60;99.90;;;;;;7337639;19;109727;-85
2022/08/21 06:23:26;;;;;;;12.30;3.00;;;16.70;99.90;;;;;;7339722;19;111208;-86
2022/08/21 06:25:59;;;;;;;7.82;2.28;;;16.80;99.90;;;;;;7337819;19;109940;-85
2022/08/21 06:28:27;;;;;;;5.22;2.78;;;16.90;99.90;;;;;;7338647;19;110876;-86
2022/08/21 06:30:54;;;;;;;5.63;2.42;;;17.00;99.90;;;;;;7345688;19;111451;-86
2022/08/21 06:33:21;;;;;;;8.10;2.80;;;17.10;99.90;;;;;;7340091;19;109731;-87
2022/08/21 06:35:49;;;;;;;7.00;2.97;;;17.20;99.90;;;;;;7339895;19;111603;-86
2022/08/21 06:38:17;;;;;;;9.25;2.63;;;17.30;99.90;;;;;;7337899;19;109568;-85
2022/08/21 06:40:44;;;;;;;5.43;2.38;;;17.40;99.90;;;;;;7338126;19;109684;-86
2022/08/21 06:43:17;;;;;;;9.20;3.05;;;17.50;99.90;;;;;;7339093;19;110431;-85
2022/08/21 06:45:44;;;;;;;6.60;2.67;;;17.60;99.90;;;;;;7340410;19;109427;-85
2022/08/21 06:48:11;;;;;;;6.63;2.65;;;17.70;99.90;;;;;;7338301;19;113973;-85
2022/08/21 06:50:45;;;;;;;8.80;2.58;;;17.80;99.90;;;;;;7338433;19;110081;-83
2022/08/21 06:53:17;;;;;;;9.07;2.53;;;17.90;99.90;;;;;;7342314;19;109521;-83
2022/08/21 06:55:48;;;;;;;7.43;2.13;;;18.00;99.90;;;;;;7338163;19;111217;-84
2022/08/21 06:58:16;;;;;;;8.52;2.45;;;18.10;99.90;;;;;;7338679;19;109506;-82
2022/08/21 07:00:47;;;;;;;8.90;2.63;;;18.30;99.90;;;;;;7338023;19;110801;-83
2022/08/21 07:03:26;;;;;;;10.05;2.70;;;18.40;99.90;;;;;;7339701;19;111113;-83
2022/08/21 07:05:55;;;;;;;8.75;2.65;;;18.50;99.90;;;;;;7338867;19;109570;-83
2022/08/21 07:08:22;;;;;;;5.53;2.00;;;18.60;99.90;;;;;;7335539;19;109661;-83
2022/08/21 07:10:49;;;;;;;7.18;2.20;;;18.70;99.90;;;;;;7339214;19;114757;-84
2022/08/21 07:13:17;;;;;;;9.65;2.30;;;18.80;99.90;;;;;;7344114;19;110237;-83
2022/08/21 07:15:44;;;;;;;9.55;2.30;;;18.90;99.90;;;;;;7337403;19;111045;-83
2022/08/21 07:18:13;;;;;;;11.43;2.42;;;19.00;99.90;;;;;;7337854;19;109874;-83
2022/08/21 07:20:40;;;;;;;9.25;2.20;;;19.10;99.90;;;;;;7336808;19;110853;-81
2022/08/21 07:23:12;;;;;;;12.13;2.40;;;19.10;99.90;;;;;;7337468;19;110612;-84
2022/08/21 07:25:39;;;;;;;12.15;2.45;;;19.20;99.90;;;;;;7338438;19;109518;-83
2022/08/21 07:28:07;;;;;;;9.48;2.10;;;19.30;99.90;;;;;;7335778;19;109770;-83
2022/08/21 07:30:34;;;;;;;13.05;2.83;;;19.40;99.90;;;;;;7337925;19;110818;-82
2022/08/21 07:33:01;;;;;;;10.70;2.08;;;19.50;99.90;;;;;;7338315;19;109719;-82
2022/08/21 07:35:28;;;;;;;9.80;2.13;;;19.60;99.90;;;;;;7341188;19;109756;-83
2022/08/21 07:37:55;;;;;;;9.18;2.17;;;19.70;99.90;;;;;;7338068;19;109593;-84
2022/08/21 07:40:22;;;;;;;9.48;2.30;;;19.90;99.90;;;;;;7343291;19;110978;-83
2022/08/21 07:42:51;;;;;;;12.23;2.55;;;19.90;99.90;;;;;;7344647;19;114450;-82
2022/08/21 07:45:21;;;;;;;11.10;2.38;;;20.10;99.90;;;;;;7344566;19;109471;-83
2022/08/21 07:47:48;;;;;;;12.10;1.80;;;20.10;99.90;;;;;;7344114;19;109416;-84
2022/08/21 07:50:22;;;;;;;9.23;2.28;;;20.20;99.90;;;;;;7341396;19;111139;-83
2022/08/21 07:52:49;;;;;;;11.27;2.22;;;20.40;99.90;;;;;;7344687;19;109359;-83
2022/08/21 07:55:19;;;;;;;9.48;2.08;;;20.40;99.90;;;;;;7345133;19;110670;-84
2022/08/21 07:57:47;;;;;;;10.68;2.28;;;20.50;99.90;;;;;;7350252;19;110350;-83
2022/08/21 08:00:22;;;;;;;11.48;2.25;;;20.60;99.90;;;;;;7343414;19;110517;-83
2022/08/21 08:02:51;;;;;;;14.63;2.13;;;20.80;99.90;;;;;;7342502;19;110932;-83
2022/08/21 08:05:21;;;;;;;11.73;1.90;;;20.80;99.90;;;;;;7345171;19;109966;-84
2022/08/21 08:07:49;;;;;;;11.82;2.05;;;21.00;99.90;;;;;;7341192;19;110407;-84
2022/08/21 08:10:17;;;;;;;11.88;1.90;;;21.10;99.90;;;;;;7344556;19;110168;-82
2022/08/21 08:12:45;;;;;;;14.02;1.95;;;21.20;99.90;;;;;;7342502;19;109668;-82
2022/08/21 08:15:16;;;;;;;10.05;1.90;;;21.30;99.90;;;;;;7344407;19;109572;-83
2022/08/21 08:17:43;;;;;;;6.57;1.38;;;21.40;99.90;;;;;;7344337;19;111118;-83
2022/08/21 08:20:12;;;;;;;11.35;2.28;;;21.50;99.90;;;;;;7348991;19;109576;-81
2022/08/21 08:22:41;;;;;;;8.30;1.88;;;21.60;99.90;;;;;;7342415;19;111756;-82
2022/08/21 08:25:09;;;;;;;11.55;1.70;;;21.70;99.90;;;;;;7344121;19;110551;-83
2022/08/21 08:27:37;;;;;;;8.45;1.60;;;21.80;99.90;;;;;;7344040;19;109508;-82
2022/08/21 08:30:06;;;;;;;14.25;1.67;;;21.80;99.90;;;;;;7344033;19;113774;-82
2022/08/21 08:32:33;;;;;;;11.18;1.83;;;21.90;99.90;;;;;;7342789;19;109571;-82
2022/08/21 08:35:00;;;;;;;10.68;1.33;;;21.90;99.90;;;;;;7343433;19;109772;-84
2022/08/21 08:37:27;;;;;;;8.20;1.45;;;21.90;99.90;;;;;;7343700;19;114574;-83
2022/08/21 08:40:00;;;;;;;11.10;1.75;;;22.00;99.90;;;;;;7343877;19;111325;-83
2022/08/21 08:42:33;;;;;;;13.25;1.67;;;22.10;99.90;;;;;;7347688;19;111275;-82
2022/08/21 08:45:06;;;;;;;8.88;1.70;;;22.10;99.90;;;;;;7343332;19;109357;-83
2022/08/21 08:47:37;;;;;;;7.47;1.20;;;22.10;99.90;;;;;;7343440;19;109392;-83
2022/08/21 08:50:17;;;;;;;8.75;1.58;;;22.10;99.90;;;;;;7340754;19;113881;-85
2022/08/21 08:53:08;;;;;;;6.70;1.40;;;22.10;99.90;;;;;;7343526;19;109453;-83
2022/08/21 08:55:39;;;;;;;8.07;1.25;;;22.10;99.90;;;;;;7342140;19;113535;-82
2022/08/21 08:58:11;;;;;;;5.63;1.10;;;22.10;99.90;;;;;;7343871;19;111170;-83
2022/08/21 09:00:39;;;;;;;10.48;1.42;;;22.20;99.90;;;;;;7342518;19;109465;-84
2022/08/21 09:03:06;;;;;;;5.57;1.10;;;22.20;99.90;;;;;;7348306;19;109627;-84
2022/08/21 09:05:42;;;;;;;10.57;1.52;;;22.20;99.90;;;;;;7340327;19;112148;-82
2022/08/21 09:08:37;;;;;;;11.27;1.57;;;22.20;99.90;;;;;;7341663;19;110503;-84
2022/08/21 09:11:17;;;;;;;9.70;1.38;;;22.30;99.90;;;;;;7342680;19;110075;-84
2022/08/21 09:14:11;;;;;;;7.63;1.27;;;22.40;99.90;;;;;;7341577;19;109731;-84
2022/08/21 09:16:58;;;;;;;6.45;1.30;;;22.60;99.90;;;;;;7342123;19;110465;-83
2022/08/21 09:19:31;;;;;;;6.20;1.00;;;22.80;99.90;;;;;;7342426;19;110492;-83
2022/08/21 09:22:22;;;;;;;8.57;1.45;;;23.10;99.90;;;;;;7339261;19;109373;-83
2022/08/21 09:25:22;;;;;;;9.75;1.42;;;23.30;99.90;;;;;;7340993;19;110478;-85
2022/08/21 09:27:50;;;;;;;8.25;1.70;;;23.40;99.90;;;;;;7345723;19;110108;-83
2022/08/21 09:30:23;;;;;;;5.70;1.17;;;23.50;99.90;;;;;;7341215;19;110665;-86
2022/08/21 09:32:50;;;;;;;4.28;0.90;;;23.60;99.90;;;;;;7342529;19;111066;-83
2022/08/21 09:35:22;;;;;;;5.80;1.10;;;23.50;99.90;;;;;;7341171;19;109598;-86
2022/08/21 09:37:52;;;;;;;4.25;0.90;;;23.50;99.90;;;;;;7340611;19;112639;-82
2022/08/21 09:40:38;;;;;;;4.90;1.10;;;23.50;99.90;;;;;;7341024;19;111497;-85
2022/08/21 09:43:11;;;;;;;8.90;1.15;;;23.40;99.90;;;;;;7340770;19;109350;-85
2022/08/21 09:45:41;;;;;;;4.35;1.10;;;23.40;99.90;;;;;;7342010;19;110537;-86
2022/08/21 09:48:13;;;;;;;9.07;1.30;;;23.40;99.90;;;;;;7341164;19;111118;-85
2022/08/21 09:50:42;;;;;;;7.57;1.00;;;23.40;99.90;;;;;;7343318;19;109755;-85
2022/08/21 09:53:30;;;;;;;3.85;0.90;;;23.50;99.90;;;;;;7341897;19;111561;-82
2022/08/21 09:59:11;;;;;;;7.88;1.67;;;23.80;99.90;;;;;;7340719;19;109413;-83
2022/08/21 10:01:45;;;;;;;5.57;0.98;;;23.90;99.80;;;;;;7336883;19;110170;-86
2022/08/21 10:04:12;;;;;;;6.57;1.02;;;24.00;99.70;;;;;;7337984;19;109497;-85
2022/08/21 10:06:40;;;;;;;9.15;1.50;;;24.00;99.60;;;;;;7339240;19;110332;-85
2022/08/21 10:09:12;;;;;;;4.90;1.00;;;24.00;99.00;;;;;;7339801;19;110117;-84
2022/08/21 10:11:59;;;;;;;9.93;1.45;;;24.00;99.10;;;;;;7339838;19;109821;-85
2022/08/21 10:14:44;;;;;;;5.60;1.15;;;24.10;99.10;;;;;;7344796;19;109568;-85
2022/08/21 10:17:40;;;;;;;5.65;1.30;;;24.10;99.00;;;;;;7337885;19;109814;-83
2022/08/21 10:20:16;;;;;;;9.32;1.38;;;24.20;98.80;;;;;;7339599;19;109580;-84
2022/08/21 10:23:07;;;;;;;10.35;1.65;;;24.30;98.90;;;;;;7339169;19;110225;-86
2022/08/21 10:26:04;;;;;;;7.85;1.00;;;24.40;98.80;;;;;;7338605;19;109619;-86
2022/08/21 10:29:08;;;;;;;6.95;1.20;;;24.50;98.50;;;;;;7340261;19;110703;-85
2022/08/21 10:31:53;;;;;;;5.30;1.13;;;24.50;98.50;;;;;;7338683;19;111057;-85
2022/08/21 10:35:00;;;;;;;6.72;1.20;;;24.60;98.20;;;;;;7340105;19;111945;-84
2022/08/21 10:37:54;;;;;;;9.95;1.30;;;24.60;98.00;;;;;;7337020;19;109830;-83
2022/08/21 10:40:44;;;;;;;11.00;2.17;;;24.60;97.90;;;;;;7344662;19;111049;-84
2022/08/21 10:43:48;;;;;;;9.68;1.30;;;24.60;97.90;;;;;;7337052;19;109488;-84
2022/08/21 10:46:46;;;;;;;6.72;1.13;;;24.70;98.20;;;;;;7338699;19;115465;-82
2022/08/21 10:49:28;;;;;;;7.93;1.60;;;24.90;98.30;;;;;;7339291;19;109499;-85
2022/08/21 10:52:04;;;;;;;9.40;1.55;;;25.10;98.10;;;;;;7335497;19;110665;-85
2022/08/21 10:54:56;;;;;;;8.75;1.80;;;25.20;97.20;;;;;;7338127;19;111010;-85
2022/08/21 10:57:36;;;;;;;5.32;1.15;;;25.10;97.10;;;;;;7340169;19;109925;-85
2022/08/21 11:00:14;;;;;;;7.63;1.30;;;25.10;97.00;;;;;;7338482;19;112207;-87
2022/08/21 11:03:05;;;;;;;5.88;1.20;;;25.10;96.40;;;;;;7336387;19;110275;-84
2022/08/21 11:05:47;;;;;;;7.57;1.20;;;25.00;96.50;;;;;;7343561;19;109483;-85
2022/08/21 11:08:33;;;;;;;8.60;1.83;;;25.00;96.50;;;;;;7337432;19;111504;-83
2022/08/21 11:11:10;;;;;;;8.32;1.52;;;25.10;96.70;;;;;;7337446;19;109433;-82
2022/08/21 11:13:59;;;;;;;7.88;1.45;;;25.20;97.10;;;;;;7340696;19;109489;-85
2022/08/21 11:16:41;;;;;;;7.22;1.40;;;25.30;96.10;;;;;;7344712;19;110157;-84
2022/08/21 11:19:19;;;;;;;7.25;1.48;;;25.30;95.80;;;;;;7346243;19;109677;-83
2022/08/21 11:22:00;;;;;;;6.32;1.42;;;25.40;96.60;;;;;;7344081;19;109361;-81
2022/08/21 11:25:07;;;;;;;13.07;1.50;;;25.60;96.80;;;;;;7345710;19;111032;-87
2022/08/21 11:27:50;;;;;;;7.20;1.20;;;25.80;96.30;;;;;;7350846;19;110186;-84
2022/08/21 11:30:17;;;;;;;8.43;1.63;;;26.00;96.40;;;;;;7344870;19;111080;-84
2022/08/21 11:33:03;;;;;;;8.65;1.52;;;26.20;95.80;;;;;;7345696;19;110057;-84
2022/08/21 11:35:41;;;;;;;7.13;1.42;;;26.30;95.30;;;;;;7345788;19;109399;-84
2022/08/21 11:38:27;;;;;;;7.82;1.58;;;26.30;94.10;;;;;;7345705;19;111307;-84
2022/08/21 11:41:14;;;;;;;10.50;1.73;;;26.30;94.90;;;;;;7344435;19;109831;-81
2022/08/21 11:43:54;;;;;;;7.45;1.40;;;26.50;94.70;;;;;;7344321;19;110482;-85
2022/08/21 11:46:30;;;;;;;9.15;1.75;;;26.70;93.80;;;;;;7344848;19;110183;-84
2022/08/21 11:48:58;;;;;;;7.88;1.55;;;26.60;93.60;;;;;;7346169;19;109504;-82
2022/08/21 11:51:37;;;;;;;10.73;1.67;;;26.60;93.90;;;;;;7347531;19;112773;-84
2022/08/21 11:54:26;;;;;;;10.27;1.90;;;26.70;94.00;;;;;;7346156;19;109660;-85
2022/08/21 11:57:00;;;;;;;12.00;1.35;;;26.80;94.20;;;;;;7345669;19;110432;-84
2022/08/21 11:59:51;;;;;;;10.23;1.45;;;26.90;93.20;;;;;;7344286;19;111129;-83
2022/08/21 12:02:21;;;;;;;7.75;1.55;;;27.00;92.90;;;;;;7340270;19;109552;-84
2022/08/21 12:04:59;;;;;;;5.47;1.30;;;27.10;93.10;;;;;;7344706;19;111005;-85
2022/08/21 12:07:42;;;;;;;6.15;1.65;;;27.20;93.00;;;;;;7342098;19;111703;-84
2022/08/21 12:10:20;;;;;;;6.57;1.42;;;27.20;92.70;;;;;;7344488;19;109374;-83
2022/08/21 12:12:48;;;;;;;8.80;1.60;;;27.40;92.50;;;;;;7344272;19;109609;-83
2022/08/21 12:15:21;;;;;;;6.93;2.03;;;27.40;91.90;;;;;;7349858;19;111180;-85
2022/08/21 12:17:56;;;;;;;4.68;1.23;;;27.30;91.10;;;;;;7343694;19;110484;-85
2022/08/21 12:20:43;;;;;;;9.15;1.40;;;27.10;91.00;;;;;;7343502;19;111225;-84
2022/08/21 12:23:31;;;;;;;7.10;1.38;;;27.20;91.80;;;;;;7341758;19;110017;-82
2022/08/21 12:26:11;;;;;;;9.38;2.00;;;27.30;91.90;;;;;;7343469;19;110307;-86
2022/08/21 12:28:40;;;;;;;6.90;1.30;;;27.60;91.90;;;;;;7342900;19;111128;-84
2022/08/21 12:31:24;;;;;;;6.93;1.50;;;27.80;92.00;;;;;;7344488;19;109593;-86
2022/08/21 12:33:59;;;;;;;10.65;1.30;;;28.00;91.10;;;;;;7344771;19;110787;-84
2022/08/21 12:37:03;;;;;;;6.70;1.20;;;28.20;91.00;;;;;;7341005;19;110107;-80
2022/08/21 12:39:33;;;;;;;6.43;1.10;;;28.40;90.20;;;;;;7349455;19;109568;-83
2022/08/21 12:42:15;;;;;;;8.38;1.20;;;28.50;89.60;;;;;;7343726;19;111392;-85
2022/08/21 12:44:59;;;;;;;5.82;1.27;;;28.60;89.10;;;;;;7344197;19;111012;-84
2022/08/21 12:47:33;;;;;;;6.32;1.38;;;28.60;88.50;;;;;;7343436;19;109674;-84
2022/08/21 12:50:11;;;;;;;6.68;1.38;;;28.50;88.90;;;;;;7342604;19;110176;-83
2022/08/21 12:52:48;;;;;;;6.00;1.25;;;28.50;88.80;;;;;;7343111;19;109779;-85
2022/08/21 12:55:30;;;;;;;7.32;1.60;;;28.50;87.50;;;;;;7343210;19;109774;-82
2022/08/21 12:57:59;;;;;;;10.77;1.63;;;28.60;87.00;;;;;;7343641;19;111353;-87
2022/08/21 13:00:28;;;;;;;8.05;1.70;;;28.50;86.40;;;;;;7342940;19;109326;-85
2022/08/21 13:02:56;;;;;;;4.07;1.20;;;28.50;86.40;;;;;;7346019;19;110354;-85
2022/08/21 13:05:35;;;;;;;9.13;1.55;;;28.50;87.50;;;;;;7341601;19;110290;-82
2022/08/21 13:08:08;;;;;;;4.60;1.38;;;28.60;87.80;;;;;;7341577;19;110100;-86